CheckWX is a tool to help pilots better visualize weather data.  It is not intended as a substitute for an official pre-flight weather briefing.

10:27:00 UTC

VOPC METAR
Pondicherry Airport
India
Current

1 hour ago

VOPC 230900Z 23004KT 6000 SCT020 BKN100 33/22 Q1004 NOSIG
Observed
Jul-23 @ 09:00 UTC
Wind
  • 230° at 4 KTS
Visibility
6,000 meters
Flight Rules
MVFR
Cloud Levels
  • Scattered at 2,000' AGL
  • Broken at 10,000' AGL
Temperature
33°C / 91°F
Dewpoint
22°C / 72°F
Heat Index
37°C / 98°F
Humidity
52%
Altimeter
29.65" Hg
Pressure
1003.92 hPa
Previous

2 hours ago

VOPC 230800Z 24004KT 6000 SCT020 BKN100 32/23 Q1004 NOSIG
Observed
Jul-23 @ 08:00 UTC
Wind
  • 240° at 4 KTS
Visibility
6,000 meters
Flight Rules
MVFR
Cloud Levels
  • Scattered at 2,000' AGL
  • Broken at 10,000' AGL
Temperature
32°C / 90°F
Dewpoint
23°C / 73°F
Heat Index
37°C / 99°F
Humidity
59%
Altimeter
29.65" Hg
Pressure
1003.92 hPa
Previous

3 hours ago

VOPC 230700Z 23004KT 6000 SCT020 BKN100 32/23 Q1005 NOSIG
Observed
Jul-23 @ 07:00 UTC
Wind
  • 230° at 4 KTS
Visibility
6,000 meters
Flight Rules
MVFR
Cloud Levels
  • Scattered at 2,000' AGL
  • Broken at 10,000' AGL
Temperature
32°C / 90°F
Dewpoint
23°C / 73°F
Heat Index
37°C / 99°F
Humidity
59%
Altimeter
29.68" Hg
Pressure
1004.92 hPa